createdAt,value
2019-02-27T00:00:14.295Z,5.53
2019-02-27T00:02:44.849Z,5.00
2019-02-27T00:05:13.836Z,4.17
2019-02-27T00:07:42.695Z,3.77
2019-02-27T00:10:11.619Z,3.85
2019-02-27T00:12:40.548Z,3.67
2019-02-27T00:15:09.476Z,3.83
2019-02-27T00:17:38.401Z,4.22
2019-02-27T00:20:07.634Z,4.22
2019-02-27T00:22:37.370Z,4.85
2019-02-27T00:25:06.732Z,4.15
2019-02-27T00:27:35.591Z,4.22
2019-02-27T00:30:06.062Z,4.40
2019-02-27T00:32:36.121Z,4.15
2019-02-27T00:35:07.218Z,3.95
2019-02-27T00:37:35.531Z,3.87
2019-02-27T00:40:06.302Z,4.35
2019-02-27T00:42:35.283Z,7.62
2019-02-27T00:45:07.014Z,11.75
2019-02-27T00:47:36.291Z,12.70
2019-02-27T00:50:06.815Z,14.70
2019-02-27T00:52:35.848Z,16.23
2019-02-27T00:55:06.308Z,14.80
2019-02-27T00:57:35.181Z,10.03
2019-02-27T01:00:06.506Z,7.15
2019-02-27T01:02:36.248Z,5.78
2019-02-27T01:05:06.230Z,5.37
2019-02-27T01:07:36.520Z,5.10
2019-02-27T01:10:06.942Z,4.37
2019-02-27T01:12:35.867Z,3.98
2019-02-27T01:15:07.992Z,4.45
2019-02-27T01:17:37.047Z,4.30
2019-02-27T01:20:11.201Z,4.30
2019-02-27T01:22:38.291Z,3.15
2019-02-27T01:25:07.227Z,2.85
2019-02-27T01:27:38.175Z,2.65
2019-02-27T01:30:08.247Z,3.70
2019-02-27T01:32:37.097Z,3.58
2019-02-27T01:35:07.244Z,3.42
2019-02-27T01:37:36.092Z,3.72
2019-02-27T01:40:06.822Z,3.58
2019-02-27T01:42:35.680Z,3.08
2019-02-27T01:45:06.403Z,3.60
2019-02-27T01:47:36.052Z,2.80
2019-02-27T01:50:23.531Z,2.67
2019-02-27T01:52:52.620Z,2.52
2019-02-27T01:55:22.465Z,3.00
2019-02-27T01:57:51.520Z,2.72
2019-02-27T02:00:23.072Z,2.85
2019-02-27T02:02:52.918Z,3.20
2019-02-27T02:05:26.151Z,2.80
2019-02-27T02:07:52.383Z,2.60
2019-02-27T02:10:21.252Z,2.77
2019-02-27T02:12:51.634Z,3.22
2019-02-27T02:15:31.045Z,3.55
2019-02-27T02:18:11.908Z,4.05
2019-02-27T02:20:51.533Z,3.30
2019-02-27T02:23:38.732Z,3.50
2019-02-27T02:26:25.960Z,3.58
2019-02-27T02:29:08.632Z,3.45
2019-02-27T02:31:41.749Z,3.40
2019-02-27T02:34:27.720Z,3.30
2019-02-27T02:37:01.774Z,3.22
2019-02-27T02:39:35.946Z,3.10
2019-02-27T02:42:07.412Z,3.35
2019-02-27T02:44:40.494Z,2.95
2019-02-27T02:47:19.806Z,3.10
2019-02-27T02:49:46.174Z,3.17
2019-02-27T02:52:40.264Z,3.40
2019-02-27T02:55:12.578Z,2.95
2019-02-27T02:57:56.927Z,3.30
2019-02-27T03:00:39.848Z,3.30
2019-02-27T03:03:25.540Z,3.62
2019-02-27T03:06:13.595Z,3.08
2019-02-27T03:08:54.991Z,2.90
2019-02-27T03:11:25.148Z,2.90
2019-02-27T03:14:16.932Z,2.95
2019-02-27T03:16:57.695Z,3.45
2019-02-27T03:19:44.718Z,3.00
2019-02-27T03:22:15.114Z,3.02
2019-02-27T03:24:45.504Z,2.92
2019-02-27T03:27:15.901Z,2.87
2019-02-27T03:29:53.403Z,3.42
2019-02-27T03:32:41.184Z,3.10
2019-02-27T03:35:05.545Z,3.37
2019-02-27T03:37:35.936Z,3.50
2019-02-27T03:40:10.927Z,3.40
2019-02-27T03:42:47.407Z,3.60
2019-02-27T03:45:17.788Z,3.30
2019-02-27T03:47:52.230Z,3.25
2019-02-27T03:50:41.636Z,3.35
2019-02-27T03:53:12.024Z,3.47
2019-02-27T03:55:42.421Z,3.20
2019-02-27T03:58:30.441Z,3.08
2019-02-27T04:00:59.959Z,3.05
2019-02-27T04:03:30.355Z,3.72
2019-02-27T04:06:21.366Z,3.90
2019-02-27T04:08:53.211Z,3.80
2019-02-27T04:11:23.381Z,3.80
2019-02-27T04:13:52.302Z,3.52
2019-02-27T04:16:21.177Z,3.40
2019-02-27T04:18:50.993Z,3.50
2019-02-27T04:21:24.927Z,3.62
2019-02-27T04:23:50.388Z,4.08
2019-02-27T04:26:20.450Z,3.70
2019-02-27T04:28:49.293Z,3.45
2019-02-27T04:31:18.151Z,3.40
2019-02-27T04:33:47.087Z,3.05
2019-02-27T04:36:15.949Z,3.45
2019-02-27T04:38:45.019Z,3.10
2019-02-27T04:41:17.834Z,2.90
2019-02-27T04:43:44.423Z,2.67
2019-02-27T04:46:13.283Z,2.70
2019-02-27T04:48:42.131Z,2.65
2019-02-27T04:51:10.988Z,2.85
2019-02-27T04:53:40.827Z,2.87
2019-02-27T04:56:09.872Z,3.22
2019-02-27T04:58:42.836Z,3.30
2019-02-27T05:01:09.268Z,3.08
2019-02-27T05:03:38.112Z,3.00
2019-02-27T05:06:06.971Z,3.47
2019-02-27T05:08:36.045Z,3.25
2019-02-27T05:11:04.903Z,2.85
2019-02-27T05:13:34.573Z,3.17
2019-02-27T05:16:03.595Z,2.40
2019-02-27T05:18:32.440Z,2.58
2019-02-27T05:21:01.314Z,2.92
2019-02-27T05:23:30.957Z,2.90
2019-02-27T05:26:00.927Z,3.10
2019-02-27T05:28:32.114Z,2.92
2019-02-27T05:31:00.339Z,2.75
2019-02-27T05:33:29.203Z,3.05
2019-02-27T05:35:58.062Z,2.90
2019-02-27T05:38:26.935Z,3.05
2019-02-27T05:40:59.867Z,2.92
2019-02-27T05:43:26.348Z,2.47
2019-02-27T05:45:55.192Z,2.95
2019-02-27T05:48:24.272Z,2.62
2019-02-27T05:50:53.132Z,2.58
2019-02-27T05:53:22.834Z,2.95
2019-02-27T05:55:52.057Z,2.65
2019-02-27T05:58:23.103Z,3.00
2019-02-27T06:00:51.956Z,3.08
2019-02-27T06:03:20.803Z,3.15
2019-02-27T06:05:49.945Z,2.75
2019-02-27T06:08:18.792Z,2.27
2019-02-27T06:10:47.642Z,2.75
2019-02-27T06:13:16.491Z,2.60
2019-02-27T06:15:45.344Z,2.58
2019-02-27T06:18:14.211Z,2.83
2019-02-27T06:20:43.070Z,3.02
2019-02-27T06:23:11.919Z,2.67
2019-02-27T06:25:40.780Z,3.33
2019-02-27T06:28:09.623Z,3.25
2019-02-27T06:30:38.711Z,2.92
2019-02-27T06:33:11.659Z,3.20
2019-02-27T06:35:38.116Z,3.05
2019-02-27T06:38:06.968Z,3.60
2019-02-27T06:40:35.823Z,3.58
2019-02-27T06:43:04.687Z,3.60
2019-02-27T06:45:33.548Z,3.60
2019-02-27T06:48:02.399Z,4.37
2019-02-27T06:50:31.256Z,5.55
2019-02-27T06:53:00.112Z,6.08
2019-02-27T06:55:28.983Z,6.10
2019-02-27T06:57:57.847Z,5.95
2019-02-27T07:00:26.720Z,5.97
2019-02-27T07:02:56.223Z,5.58
2019-02-27T07:05:25.216Z,5.90
2019-02-27T07:07:54.308Z,5.55
2019-02-27T07:10:23.155Z,6.60
2019-02-27T07:12:54.392Z,8.13
2019-02-27T07:15:22.735Z,6.80
2019-02-27T07:17:51.591Z,7.03
2019-02-27T07:20:23.906Z,7.78
2019-02-27T07:22:51.028Z,9.00
2019-02-27T07:25:20.123Z,6.83
2019-02-27T07:27:48.980Z,5.42
2019-02-27T07:30:18.313Z,5.00
2019-02-27T07:32:47.527Z,4.35
2019-02-27T07:35:16.992Z,4.53
2019-02-27T07:37:47.965Z,4.58
2019-02-27T07:40:17.096Z,4.78
2019-02-27T07:42:46.120Z,4.40
2019-02-27T07:45:16.876Z,4.47
2019-02-27T07:47:45.815Z,4.53
2019-02-27T07:50:15.747Z,5.33
2019-02-27T07:52:44.604Z,5.97
2019-02-27T07:55:21.580Z,6.42
2019-02-27T07:57:45.549Z,5.30
2019-02-27T08:00:16.013Z,5.20
2019-02-27T08:02:44.884Z,5.00
2019-02-27T08:05:13.971Z,5.00
2019-02-27T08:07:42.839Z,5.50
2019-02-27T08:10:16.026Z,5.83
2019-02-27T08:12:44.903Z,5.30
2019-02-27T08:15:15.445Z,4.92
2019-02-27T08:17:44.316Z,4.55
2019-02-27T08:20:13.740Z,5.00
2019-02-27T08:22:42.774Z,5.75
2019-02-27T08:25:15.415Z,5.40
2019-02-27T08:27:44.513Z,5.58
2019-02-27T08:30:15.132Z,5.12
2019-02-27T08:32:44.000Z,5.45
2019-02-27T08:35:13.256Z,5.35
2019-02-27T08:37:42.348Z,6.67
2019-02-27T08:40:12.275Z,8.28
2019-02-27T08:42:41.377Z,8.70
2019-02-27T08:45:19.303Z,9.65
2019-02-27T08:47:43.403Z,9.43
2019-02-27T08:50:14.028Z,9.20
2019-02-27T08:52:44.411Z,8.63
2019-02-27T08:55:23.089Z,8.33
2019-02-27T08:57:55.982Z,8.85
2019-02-27T09:00:24.183Z,8.88
2019-02-27T09:02:53.037Z,8.78
2019-02-27T09:05:21.898Z,8.43
2019-02-27T09:07:51.855Z,9.43
2019-02-27T09:10:23.312Z,8.73
2019-02-27T09:12:52.091Z,8.78
2019-02-27T09:15:21.033Z,9.13
2019-02-27T09:17:49.901Z,9.65
2019-02-27T09:20:20.493Z,9.25
2019-02-27T09:22:49.598Z,9.00
2019-02-27T09:25:23.422Z,9.50
2019-02-27T09:27:49.103Z,8.93
2019-02-27T09:30:18.721Z,9.58
2019-02-27T09:32:47.583Z,9.23
2019-02-27T09:35:16.760Z,9.20
2019-02-27T09:37:48.292Z,8.95
2019-02-27T09:40:17.699Z,8.63
2019-02-27T09:42:46.838Z,9.23
2019-02-27T09:45:17.300Z,8.83
2019-02-27T09:47:46.168Z,8.83
2019-02-27T09:50:19.493Z,9.28
2019-02-27T09:52:48.355Z,8.60
2019-02-27T09:55:19.988Z,8.73
2019-02-27T09:57:47.848Z,9.53
2019-02-27T10:00:33.382Z,8.15
2019-02-27T10:03:02.640Z,8.20
2019-02-27T10:05:36.325Z,8.25
2019-02-27T10:08:02.128Z,8.28
2019-02-27T10:10:30.992Z,8.20
2019-02-27T10:12:59.913Z,8.33
2019-02-27T10:15:29.847Z,8.75
2019-02-27T10:17:58.771Z,8.15
2019-02-27T10:20:27.635Z,8.78
2019-02-27T10:22:56.734Z,8.35
2019-02-27T10:25:25.596Z,8.85
2019-02-27T10:27:54.461Z,8.63
2019-02-27T10:30:23.382Z,9.18
2019-02-27T10:32:52.248Z,9.35
2019-02-27T10:35:22.937Z,8.93
2019-02-27T10:37:54.339Z,9.00
2019-02-27T10:40:26.203Z,9.73
2019-02-27T10:42:55.067Z,10.08
2019-02-27T10:45:23.919Z,9.68
2019-02-27T10:47:52.790Z,10.08
2019-02-27T10:50:21.659Z,9.53
2019-02-27T10:52:51.893Z,10.10
2019-02-27T10:55:21.723Z,10.13
2019-02-27T10:57:50.995Z,10.05
2019-02-27T11:00:24.863Z,9.78
2019-02-27T11:02:52.577Z,10.58
2019-02-27T11:05:22.100Z,10.63
2019-02-27T11:07:53.038Z,10.43
2019-02-27T11:10:21.821Z,10.38
2019-02-27T11:12:50.766Z,10.32
2019-02-27T11:15:20.206Z,10.53
2019-02-27T11:17:49.152Z,10.48
2019-02-27T11:20:21.011Z,10.65
2019-02-27T11:22:48.831Z,11.08
2019-02-27T11:25:22.498Z,11.73
2019-02-27T11:27:52.122Z,10.88
2019-02-27T11:30:22.732Z,11.28
2019-02-27T11:32:56.721Z,11.97
2019-02-27T11:35:25.184Z,11.40
2019-02-27T11:37:53.033Z,11.50
2019-02-27T11:40:23.804Z,11.88
2019-02-27T11:42:52.663Z,12.00
2019-02-27T11:45:24.665Z,12.58
2019-02-27T11:47:52.187Z,11.40
2019-02-27T11:50:21.045Z,11.88
2019-02-27T11:52:50.135Z,12.30
2019-02-27T11:55:20.701Z,13.08
2019-02-27T11:57:50.466Z,12.80
2019-02-27T12:00:27.605Z,13.03
2019-02-27T12:02:56.835Z,11.88
2019-02-27T12:05:31.379Z,12.20
2019-02-27T12:07:57.512Z,12.85
2019-02-27T12:10:27.772Z,12.43
2019-02-27T12:12:59.988Z,12.45
2019-02-27T12:15:27.375Z,11.78
2019-02-27T12:17:59.851Z,12.43
2019-02-27T12:20:27.032Z,12.47
2019-02-27T12:22:56.127Z,12.95
2019-02-27T12:25:29.079Z,13.03
2019-02-27T12:27:56.339Z,12.37
2019-02-27T12:30:26.502Z,13.20
2019-02-27T12:32:56.693Z,13.58
2019-02-27T12:35:27.070Z,12.95
2019-02-27T12:37:56.991Z,13.50
2019-02-27T12:40:25.929Z,13.00
2019-02-27T12:42:54.788Z,13.25
2019-02-27T12:45:25.728Z,12.75
2019-02-27T12:47:56.069Z,12.93
2019-02-27T12:50:30.878Z,13.20
2019-02-27T12:52:57.496Z,12.33
2019-02-27T12:55:26.591Z,11.95
2019-02-27T12:57:55.447Z,13.15
2019-02-27T13:00:26.091Z,12.70
2019-02-27T13:02:55.029Z,12.75
2019-02-27T13:05:26.282Z,12.28
2019-02-27T13:07:54.475Z,12.75
2019-02-27T13:10:24.167Z,11.65
2019-02-27T13:12:53.041Z,11.18
2019-02-27T13:15:23.051Z,12.58
2019-02-27T13:17:56.056Z,12.47
2019-02-27T13:20:26.844Z,10.88
2019-02-27T13:22:56.014Z,11.65
2019-02-27T13:25:25.955Z,11.68
2019-02-27T13:27:54.886Z,11.15
2019-02-27T13:30:24.432Z,11.10
2019-02-27T13:32:53.579Z,11.38
2019-02-27T13:35:23.001Z,10.70
2019-02-27T13:37:54.038Z,11.75
2019-02-27T13:40:23.724Z,10.55
2019-02-27T13:42:53.685Z,10.82
2019-02-27T13:45:26.579Z,10.90
2019-02-27T13:47:55.574Z,11.00
2019-02-27T13:50:26.726Z,10.78
2019-02-27T13:52:54.997Z,10.65
2019-02-27T13:55:23.936Z,9.75
2019-02-27T13:57:53.012Z,11.10
2019-02-27T14:00:26.158Z,10.75
2019-02-27T14:02:55.328Z,8.70
2019-02-27T14:05:24.248Z,9.03
2019-02-27T14:07:57.090Z,9.83
2019-02-27T14:10:25.343Z,9.90
2019-02-27T14:12:54.290Z,9.33
2019-02-27T14:15:26.771Z,8.55
2019-02-27T14:17:53.739Z,6.65
2019-02-27T14:20:23.367Z,6.60
2019-02-27T14:22:52.363Z,8.00
2019-02-27T14:25:22.320Z,7.00
2019-02-27T14:27:51.455Z,6.55
2019-02-27T14:30:24.388Z,6.40
2019-02-27T14:32:53.275Z,6.42
2019-02-27T14:35:22.160Z,6.72
2019-02-27T14:37:51.200Z,6.00
2019-02-27T14:40:21.859Z,6.95
2019-02-27T14:42:53.774Z,6.62
2019-02-27T14:45:25.174Z,6.53
2019-02-27T14:47:54.019Z,6.67
2019-02-27T14:50:23.343Z,6.70
2019-02-27T14:52:52.515Z,7.45
2019-02-27T14:55:21.744Z,7.55
2019-02-27T14:57:51.525Z,5.78
2019-02-27T15:00:24.415Z,6.58
2019-02-27T15:02:55.632Z,6.42
2019-02-27T15:05:23.832Z,6.97
2019-02-27T15:07:54.440Z,7.58
2019-02-27T15:10:24.433Z,7.70
2019-02-27T15:12:55.073Z,7.67
2019-02-27T15:15:30.817Z,7.28
2019-02-27T15:18:00.148Z,7.25
2019-02-27T15:20:29.674Z,7.65
2019-02-27T15:22:58.759Z,7.40
2019-02-27T15:25:27.924Z,6.87
2019-02-27T15:27:58.852Z,8.18
2019-02-27T15:30:31.106Z,7.80
2019-02-27T15:33:03.583Z,8.25
2019-02-27T15:35:30.692Z,7.87
2019-02-27T15:37:59.923Z,7.50
2019-02-27T15:40:30.195Z,7.97
2019-02-27T15:42:59.329Z,7.70
2019-02-27T15:45:28.717Z,7.87
2019-02-27T15:47:57.571Z,8.10
2019-02-27T15:50:28.270Z,8.15
2019-02-27T15:52:57.127Z,7.37
2019-02-27T15:55:26.391Z,7.47
2019-02-27T15:57:55.291Z,7.65
2019-02-27T16:00:24.800Z,7.47
2019-02-27T16:02:53.819Z,7.60
2019-02-27T16:05:22.685Z,7.72
2019-02-27T16:07:51.543Z,7.45
2019-02-27T16:10:21.963Z,7.28
2019-02-27T16:12:50.885Z,7.47
2019-02-27T16:15:20.687Z,6.92
2019-02-27T16:17:49.772Z,6.87
2019-02-27T16:20:22.191Z,7.37
2019-02-27T16:22:51.279Z,7.37
2019-02-27T16:25:22.647Z,6.37
2019-02-27T16:27:51.585Z,7.10
2019-02-27T16:30:21.972Z,6.17
2019-02-27T16:32:50.836Z,6.83
2019-02-27T16:35:19.920Z,6.00
2019-02-27T16:37:49.019Z,6.08
2019-02-27T16:40:19.404Z,5.90
2019-02-27T16:42:48.336Z,5.70
2019-02-27T16:45:21.751Z,6.17
2019-02-27T16:47:50.619Z,6.37
2019-02-27T16:50:23.996Z,6.70
2019-02-27T16:52:51.028Z,8.43
2019-02-27T16:55:20.760Z,7.97
2019-02-27T16:57:49.608Z,9.43
2019-02-27T17:00:21.350Z,10.18
2019-02-27T17:02:50.671Z,11.18
2019-02-27T17:05:19.776Z,10.13
2019-02-27T17:07:48.644Z,9.55
2019-02-27T17:10:19.128Z,10.05
2019-02-27T17:12:47.984Z,8.98
2019-02-27T17:15:16.839Z,10.40
2019-02-27T17:17:45.704Z,9.05
2019-02-27T17:20:15.633Z,7.80
2019-02-27T17:22:44.493Z,7.83
2019-02-27T17:25:14.031Z,8.65
2019-02-27T17:27:42.903Z,7.62
2019-02-27T17:30:16.675Z,6.35
2019-02-27T17:32:45.839Z,6.17
2019-02-27T17:35:14.769Z,6.53
2019-02-27T17:37:43.625Z,6.60
2019-02-27T17:40:17.169Z,6.12
2019-02-27T17:42:46.631Z,15.23
2019-02-27T17:45:16.515Z,12.73
2019-02-27T17:47:45.368Z,14.38
2019-02-27T17:50:15.099Z,19.92
2019-02-27T17:52:48.710Z,28.85
2019-02-27T17:55:17.800Z,21.97
2019-02-27T17:57:46.666Z,14.63
2019-02-27T18:00:17.468Z,13.50
2019-02-27T18:02:46.331Z,12.33
2019-02-27T18:05:15.183Z,11.22
2019-02-27T18:07:44.048Z,8.73
2019-02-27T18:10:13.899Z,7.67
2019-02-27T18:12:42.911Z,6.67
2019-02-27T18:15:19.875Z,5.87
2019-02-27T18:17:46.924Z,5.30
2019-02-27T18:20:15.945Z,5.10
2019-02-27T18:22:45.980Z,5.22
2019-02-27T18:25:17.916Z,4.80
2019-02-27T18:27:47.916Z,4.92
2019-02-27T18:30:18.956Z,4.90
2019-02-27T18:32:48.655Z,5.10
2019-02-27T18:35:18.180Z,4.65
2019-02-27T18:37:47.199Z,5.17
2019-02-27T18:40:16.831Z,5.50
2019-02-27T18:42:45.681Z,6.20
2019-02-27T18:45:16.146Z,5.70
2019-02-27T18:47:45.154Z,5.83
2019-02-27T18:50:14.692Z,6.70
2019-02-27T18:52:43.647Z,5.80
2019-02-27T18:55:13.479Z,5.50
2019-02-27T18:57:46.085Z,5.90
2019-02-27T19:00:14.828Z,5.50
2019-02-27T19:02:43.718Z,7.65
2019-02-27T19:05:12.627Z,9.75
2019-02-27T19:07:41.552Z,8.28
2019-02-27T19:10:14.754Z,7.72
2019-02-27T19:12:43.147Z,6.67
2019-02-27T19:15:16.232Z,6.28
2019-02-27T19:17:45.370Z,6.33
2019-02-27T19:20:15.578Z,6.70
2019-02-27T19:22:44.440Z,6.30
2019-02-27T19:25:13.975Z,6.33
2019-02-27T19:27:42.930Z,5.90
2019-02-27T19:30:13.330Z,6.45
2019-02-27T19:32:42.199Z,6.12
2019-02-27T19:35:11.080Z,6.60
2019-02-27T19:37:39.995Z,6.58
2019-02-27T19:40:10.803Z,6.28
2019-02-27T19:42:41.212Z,6.45
2019-02-27T19:45:10.060Z,6.40
2019-02-27T19:47:39.163Z,6.67
2019-02-27T19:50:11.208Z,7.10
2019-02-27T19:52:39.180Z,7.55
2019-02-27T19:55:08.508Z,8.03
2019-02-27T19:57:39.315Z,8.80
2019-02-27T20:00:18.036Z,8.43
2019-02-27T20:02:47.575Z,8.85
2019-02-27T20:05:18.884Z,8.53
2019-02-27T20:07:47.155Z,8.43
2019-02-27T20:10:16.684Z,8.40
2019-02-27T20:12:47.774Z,8.08
2019-02-27T20:15:17.436Z,8.83
2019-02-27T20:17:46.283Z,8.33
2019-02-27T20:20:15.916Z,8.80
2019-02-27T20:22:44.782Z,9.45
2019-02-27T20:25:14.516Z,9.53
2019-02-27T20:27:43.439Z,8.90
2019-02-27T20:30:14.291Z,9.65
2019-02-27T20:32:43.972Z,9.70
2019-02-27T20:35:13.023Z,9.58
2019-02-27T20:37:41.880Z,8.65
2019-02-27T20:40:12.700Z,9.08
2019-02-27T20:42:41.636Z,9.68
2019-02-27T20:45:12.032Z,8.90
2019-02-27T20:47:40.958Z,8.90
2019-02-27T20:50:20.977Z,8.85
2019-02-27T20:52:49.492Z,8.35
2019-02-27T20:55:18.755Z,8.43
2019-02-27T20:57:48.591Z,8.35
2019-02-27T21:00:17.675Z,8.10
2019-02-27T21:02:46.840Z,8.55
2019-02-27T21:05:15.699Z,10.70
2019-02-27T21:07:44.572Z,11.88
2019-02-27T21:10:19.915Z,11.88
2019-02-27T21:12:53.553Z,13.58
2019-02-27T21:15:16.124Z,13.28
2019-02-27T21:17:45.007Z,11.95
2019-02-27T21:20:13.876Z,8.83
2019-02-27T21:22:43.699Z,9.88
2019-02-27T21:25:14.879Z,8.85
2019-02-27T21:27:43.595Z,8.80
2019-02-27T21:30:17.839Z,9.38
2019-02-27T21:32:44.552Z,8.50
2019-02-27T21:35:13.474Z,10.20
2019-02-27T21:37:45.485Z,10.40
2019-02-27T21:40:14.756Z,9.78
2019-02-27T21:42:43.688Z,9.88
2019-02-27T21:45:16.815Z,10.03
2019-02-27T21:47:45.858Z,10.15
2019-02-27T21:50:24.572Z,12.30
2019-02-27T21:52:55.643Z,11.63
2019-02-27T21:55:24.131Z,13.32
2019-02-27T21:57:53.034Z,12.73
2019-02-27T22:00:23.891Z,9.98
2019-02-27T22:02:56.228Z,8.28
2019-02-27T22:05:25.081Z,8.43
2019-02-27T22:07:54.026Z,8.95
2019-02-27T22:10:22.879Z,8.75
2019-02-27T22:12:51.972Z,9.38
2019-02-27T22:15:23.162Z,9.28
2019-02-27T22:17:52.403Z,8.70
2019-02-27T22:20:21.283Z,10.35
2019-02-27T22:22:50.311Z,8.73
2019-02-27T22:25:19.179Z,9.80
2019-02-27T22:27:48.743Z,8.88
2019-02-27T22:30:19.140Z,9.03
2019-02-27T22:32:48.829Z,8.03
2019-02-27T22:35:17.870Z,8.80
2019-02-27T22:37:51.273Z,8.53
2019-02-27T22:40:19.067Z,8.78
2019-02-27T22:42:48.634Z,8.90
2019-02-27T22:45:19.004Z,10.43
2019-02-27T22:47:48.798Z,10.15
2019-02-27T22:50:20.676Z,10.38
2019-02-27T22:52:54.074Z,10.10
2019-02-27T22:55:20.193Z,11.12
2019-02-27T22:57:49.060Z,11.15
2019-02-27T23:00:53.004Z,10.70
2019-02-27T23:03:28.276Z,9.88
2019-02-27T23:05:57.131Z,10.25
2019-02-27T23:08:25.994Z,9.58
2019-02-27T23:10:54.921Z,9.08
2019-02-27T23:13:23.771Z,9.10
2019-02-27T23:15:58.075Z,9.93
2019-02-27T23:18:23.421Z,10.50
2019-02-27T23:20:52.453Z,10.88
2019-02-27T23:23:22.911Z,10.88
2019-02-27T23:25:51.779Z,10.80
2019-02-27T23:28:20.671Z,10.82
2019-02-27T23:30:49.549Z,10.72
2019-02-27T23:33:18.392Z,11.20
2019-02-27T23:35:50.244Z,10.55
2019-02-27T23:38:18.900Z,11.00
2019-02-27T23:40:49.043Z,11.75
2019-02-27T23:43:19.758Z,12.35
2019-02-27T23:45:48.907Z,12.50
2019-02-27T23:48:17.779Z,12.23
2019-02-27T23:50:46.648Z,10.50
2019-02-27T23:53:15.517Z,11.05
2019-02-27T23:55:45.376Z,9.33
2019-02-27T23:58:14.513Z,10.05
